sensor_id;sensor_type;location;lat;lon;timestamp;P1;durP1;ratioP1;P2;durP2;ratioP2
61638;SDS011;47544;52.484;4.658;2023-02-20T00:00:15;15.35;;;6.95;;
61638;SDS011;47544;52.484;4.658;2023-02-20T00:00:29;16.90;;;7.43;;
61638;SDS011;47544;52.484;4.658;2023-02-20T00:00:40;16.38;;;7.55;;
61638;SDS011;47544;52.484;4.658;2023-02-20T00:00:51;15.05;;;7.00;;
61638;SDS011;47544;52.484;4.658;2023-02-20T00:01:03;11.68;;;6.25;;
61638;SDS011;47544;52.484;4.658;2023-02-20T00:01:14;11.65;;;5.85;;
61638;SDS011;47544;52.484;4.658;2023-02-20T00:01:25;11.65;;;5.55;;
61638;SDS011;47544;52.484;4.658;2023-02-20T00:01:37;13.95;;;5.72;;
61638;SDS011;47544;52.484;4.658;2023-02-20T00:01:50;15.57;;;6.35;;
61638;SDS011;47544;52.484;4.658;2023-02-20T00:02:01;16.50;;;6.38;;
61638;SDS011;47544;52.484;4.658;2023-02-20T00:02:12;13.90;;;6.10;;
61638;SDS011;47544;52.484;4.658;2023-02-20T00:02:23;13.23;;;6.38;;
61638;SDS011;47544;52.484;4.658;2023-02-20T00:02:34;12.02;;;6.47;;
61638;SDS011;47544;52.484;4.658;2023-02-20T00:02:46;10.27;;;5.05;;
61638;SDS011;47544;52.484;4.658;2023-02-20T00:02:57;10.63;;;4.35;;
61638;SDS011;47544;52.484;4.658;2023-02-20T00:03:09;12.40;;;4.57;;
61638;SDS011;47544;52.484;4.658;2023-02-20T00:03:20;13.55;;;5.25;;
61638;SDS011;47544;52.484;4.658;2023-02-20T00:03:32;10.52;;;4.38;;
61638;SDS011;47544;52.484;4.658;2023-02-20T00:03:44;10.45;;;4.55;;
61638;SDS011;47544;52.484;4.658;2023-02-20T00:03:55;10.75;;;5.00;;
61638;SDS011;47544;52.484;4.658;2023-02-20T00:04:06;12.75;;;5.50;;
61638;SDS011;47544;52.484;4.658;2023-02-20T00:04:17;15.65;;;6.43;;
61638;SDS011;47544;52.484;4.658;2023-02-20T00:04:29;18.65;;;6.53;;
61638;SDS011;47544;52.484;4.658;2023-02-20T00:04:40;18.80;;;6.40;;
61638;SDS011;47544;52.484;4.658;2023-02-20T00:04:51;17.02;;;5.90;;
61638;SDS011;47544;52.484;4.658;2023-02-20T00:05:02;18.90;;;6.22;;
61638;SDS011;47544;52.484;4.658;2023-02-20T00:05:14;14.43;;;5.35;;
61638;SDS011;47544;52.484;4.658;2023-02-20T00:05:26;11.60;;;4.97;;
61638;SDS011;47544;52.484;4.658;2023-02-20T00:05:37;11.40;;;5.13;;
61638;SDS011;47544;52.484;4.658;2023-02-20T00:05:48;11.68;;;5.25;;
61638;SDS011;47544;52.484;4.658;2023-02-20T00:05:59;13.43;;;5.85;;
61638;SDS011;47544;52.484;4.658;2023-02-20T00:06:10;13.38;;;6.18;;
61638;SDS011;47544;52.484;4.658;2023-02-20T00:06:21;15.43;;;6.50;;
61638;SDS011;47544;52.484;4.658;2023-02-20T00:06:32;14.30;;;6.07;;
61638;SDS011;47544;52.484;4.658;2023-02-20T00:06:43;12.65;;;5.45;;
61638;SDS011;47544;52.484;4.658;2023-02-20T00:06:55;11.52;;;5.20;;
61638;SDS011;47544;52.484;4.658;2023-02-20T00:07:06;14.85;;;6.38;;
61638;SDS011;47544;52.484;4.658;2023-02-20T00:07:17;16.48;;;6.97;;
61638;SDS011;47544;52.484;4.658;2023-02-20T00:07:29;14.73;;;6.03;;
61638;SDS011;47544;52.484;4.658;2023-02-20T00:07:40;13.05;;;5.22;;
61638;SDS011;47544;52.484;4.658;2023-02-20T00:07:51;15.00;;;6.15;;
61638;SDS011;47544;52.484;4.658;2023-02-20T00:08:02;15.15;;;6.53;;
61638;SDS011;47544;52.484;4.658;2023-02-20T00:08:13;13.57;;;6.25;;
61638;SDS011;47544;52.484;4.658;2023-02-20T00:08:25;12.73;;;6.05;;
61638;SDS011;47544;52.484;4.658;2023-02-20T00:08:36;12.20;;;5.82;;
61638;SDS011;47544;52.484;4.658;2023-02-20T00:08:47;13.40;;;6.07;;
61638;SDS011;47544;52.484;4.658;2023-02-20T00:08:58;13.57;;;5.95;;
61638;SDS011;47544;52.484;4.658;2023-02-20T00:09:09;14.20;;;5.65;;
61638;SDS011;47544;52.484;4.658;2023-02-20T00:09:20;13.13;;;5.22;;
61638;SDS011;47544;52.484;4.658;2023-02-20T00:09:31;13.48;;;5.50;;
61638;SDS011;47544;52.484;4.658;2023-02-20T00:09:42;13.95;;;6.32;;
61638;SDS011;47544;52.484;4.658;2023-02-20T00:09:54;15.23;;;6.60;;
61638;SDS011;47544;52.484;4.658;2023-02-20T00:10:05;16.42;;;7.03;;
61638;SDS011;47544;52.484;4.658;2023-02-20T00:10:17;14.35;;;6.05;;
61638;SDS011;47544;52.484;4.658;2023-02-20T00:10:28;15.27;;;5.70;;
61638;SDS011;47544;52.484;4.658;2023-02-20T00:10:39;13.50;;;5.03;;
61638;SDS011;47544;52.484;4.658;2023-02-20T00:10:50;16.05;;;4.72;;
61638;SDS011;47544;52.484;4.658;2023-02-20T00:11:01;16.70;;;4.90;;
61638;SDS011;47544;52.484;4.658;2023-02-20T00:11:14;20.33;;;6.45;;
61638;SDS011;47544;52.484;4.658;2023-02-20T00:11:25;18.75;;;7.60;;
61638;SDS011;47544;52.484;4.658;2023-02-20T00:11:36;17.27;;;7.72;;
61638;SDS011;47544;52.484;4.658;2023-02-20T00:11:47;19.10;;;7.88;;
61638;SDS011;47544;52.484;4.658;2023-02-20T00:11:58;20.13;;;8.23;;
61638;SDS011;47544;52.484;4.658;2023-02-20T00:12:10;20.98;;;8.45;;
61638;SDS011;47544;52.484;4.658;2023-02-20T00:12:22;17.10;;;7.82;;
61638;SDS011;47544;52.484;4.658;2023-02-20T00:12:33;17.50;;;7.78;;
61638;SDS011;47544;52.484;4.658;2023-02-20T00:12:45;18.02;;;8.00;;
61638;SDS011;47544;52.484;4.658;2023-02-20T00:12:56;15.38;;;7.03;;
61638;SDS011;47544;52.484;4.658;2023-02-20T00:13:07;13.18;;;5.90;;
61638;SDS011;47544;52.484;4.658;2023-02-20T00:13:18;11.57;;;5.18;;
61638;SDS011;47544;52.484;4.658;2023-02-20T00:13:29;14.88;;;5.82;;
61638;SDS011;47544;52.484;4.658;2023-02-20T00:13:45;16.52;;;6.95;;
61638;SDS011;47544;52.484;4.658;2023-02-20T00:13:56;15.93;;;6.78;;
61638;SDS011;47544;52.484;4.658;2023-02-20T00:14:08;13.18;;;5.75;;
61638;SDS011;47544;52.484;4.658;2023-02-20T00:14:19;11.95;;;5.57;;
61638;SDS011;47544;52.484;4.658;2023-02-20T00:14:30;12.15;;;6.15;;
61638;SDS011;47544;52.484;4.658;2023-02-20T00:14:42;14.30;;;6.55;;
61638;SDS011;47544;52.484;4.658;2023-02-20T00:14:53;15.52;;;6.63;;
61638;SDS011;47544;52.484;4.658;2023-02-20T00:15:04;15.38;;;6.32;;
61638;SDS011;47544;52.484;4.658;2023-02-20T00:15:16;12.35;;;5.43;;
61638;SDS011;47544;52.484;4.658;2023-02-20T00:15:28;12.10;;;4.97;;
61638;SDS011;47544;52.484;4.658;2023-02-20T00:15:41;11.23;;;5.07;;
61638;SDS011;47544;52.484;4.658;2023-02-20T00:15:52;11.88;;;5.15;;
61638;SDS011;47544;52.484;4.658;2023-02-20T00:16:03;13.23;;;5.45;;
61638;SDS011;47544;52.484;4.658;2023-02-20T00:16:14;15.05;;;5.93;;
61638;SDS011;47544;52.484;4.658;2023-02-20T00:16:25;15.80;;;6.15;;
61638;SDS011;47544;52.484;4.658;2023-02-20T00:16:37;19.63;;;7.47;;
61638;SDS011;47544;52.484;4.658;2023-02-20T00:16:48;19.52;;;7.63;;
61638;SDS011;47544;52.484;4.658;2023-02-20T00:16:59;18.13;;;7.22;;
61638;SDS011;47544;52.484;4.658;2023-02-20T00:17:11;16.48;;;6.53;;
61638;SDS011;47544;52.484;4.658;2023-02-20T00:17:22;16.25;;;6.40;;
61638;SDS011;47544;52.484;4.658;2023-02-20T00:17:33;14.45;;;6.07;;
61638;SDS011;47544;52.484;4.658;2023-02-20T00:17:44;13.27;;;5.88;;
61638;SDS011;47544;52.484;4.658;2023-02-20T00:17:57;16.42;;;6.97;;
61638;SDS011;47544;52.484;4.658;2023-02-20T00:18:08;16.17;;;7.20;;
61638;SDS011;47544;52.484;4.658;2023-02-20T00:18:20;15.45;;;6.55;;
61638;SDS011;47544;52.484;4.658;2023-02-20T00:18:31;14.90;;;6.43;;
61638;SDS011;47544;52.484;4.658;2023-02-20T00:18:43;16.67;;;6.40;;
61638;SDS011;47544;52.484;4.658;2023-02-20T00:18:54;14.88;;;6.05;;
61638;SDS011;47544;52.484;4.658;2023-02-20T00:19:05;15.02;;;5.70;;
61638;SDS011;47544;52.484;4.658;2023-02-20T00:19:16;14.48;;;5.70;;
61638;SDS011;47544;52.484;4.658;2023-02-20T00:19:27;13.73;;;5.57;;
61638;SDS011;47544;52.484;4.658;2023-02-20T00:19:39;12.60;;;5.35;;
61638;SDS011;47544;52.484;4.658;2023-02-20T00:19:50;14.50;;;5.05;;
61638;SDS011;47544;52.484;4.658;2023-02-20T00:20:01;13.90;;;4.85;;
61638;SDS011;47544;52.484;4.658;2023-02-20T00:20:12;12.32;;;4.43;;
61638;SDS011;47544;52.484;4.658;2023-02-20T00:20:24;14.95;;;5.70;;
61638;SDS011;47544;52.484;4.658;2023-02-20T00:20:35;17.35;;;6.93;;
61638;SDS011;47544;52.484;4.658;2023-02-20T00:20:47;15.98;;;6.75;;
61638;SDS011;47544;52.484;4.658;2023-02-20T00:20:58;14.23;;;6.25;;
61638;SDS011;47544;52.484;4.658;2023-02-20T00:21:09;15.50;;;6.05;;
61638;SDS011;47544;52.484;4.658;2023-02-20T00:21:21;19.38;;;6.90;;
61638;SDS011;47544;52.484;4.658;2023-02-20T00:21:32;21.08;;;7.97;;
61638;SDS011;47544;52.484;4.658;2023-02-20T00:21:44;21.10;;;8.70;;
61638;SDS011;47544;52.484;4.658;2023-02-20T00:21:55;15.82;;;7.32;;
61638;SDS011;47544;52.484;4.658;2023-02-20T00:22:06;14.15;;;6.45;;
61638;SDS011;47544;52.484;4.658;2023-02-20T00:22:17;14.75;;;6.32;;
61638;SDS011;47544;52.484;4.658;2023-02-20T00:22:30;17.35;;;7.00;;
61638;SDS011;47544;52.484;4.658;2023-02-20T00:22:41;16.00;;;6.82;;
61638;SDS011;47544;52.484;4.658;2023-02-20T00:22:53;15.25;;;6.07;;
61638;SDS011;47544;52.484;4.658;2023-02-20T00:23:05;13.57;;;5.82;;
61638;SDS011;47544;52.484;4.658;2023-02-20T00:23:16;13.57;;;5.57;;
61638;SDS011;47544;52.484;4.658;2023-02-20T00:23:27;13.55;;;5.28;;
61638;SDS011;47544;52.484;4.658;2023-02-20T00:23:41;13.57;;;5.00;;
61638;SDS011;47544;52.484;4.658;2023-02-20T00:23:52;13.35;;;5.63;;
61638;SDS011;47544;52.484;4.658;2023-02-20T00:24:04;12.88;;;5.43;;
61638;SDS011;47544;52.484;4.658;2023-02-20T00:24:15;11.27;;;5.40;;
61638;SDS011;47544;52.484;4.658;2023-02-20T00:24:26;11.75;;;5.70;;
61638;SDS011;47544;52.484;4.658;2023-02-20T00:24:37;11.15;;;5.80;;
61638;SDS011;47544;52.484;4.658;2023-02-20T00:24:49;11.48;;;5.55;;
61638;SDS011;47544;52.484;4.658;2023-02-20T00:25:00;11.80;;;5.18;;
61638;SDS011;47544;52.484;4.658;2023-02-20T00:25:11;14.30;;;5.78;;
61638;SDS011;47544;52.484;4.658;2023-02-20T00:25:22;17.42;;;6.85;;
61638;SDS011;47544;52.484;4.658;2023-02-20T00:25:33;20.13;;;7.70;;
61638;SDS011;47544;52.484;4.658;2023-02-20T00:25:44;16.70;;;6.65;;
61638;SDS011;47544;52.484;4.658;2023-02-20T00:25:55;13.85;;;5.85;;
61638;SDS011;47544;52.484;4.658;2023-02-20T00:26:07;15.25;;;6.20;;
61638;SDS011;47544;52.484;4.658;2023-02-20T00:26:18;16.70;;;6.32;;
61638;SDS011;47544;52.484;4.658;2023-02-20T00:26:29;18.60;;;6.93;;
61638;SDS011;47544;52.484;4.658;2023-02-20T00:26:44;20.45;;;7.72;;
61638;SDS011;47544;52.484;4.658;2023-02-20T00:26:55;18.27;;;7.18;;
61638;SDS011;47544;52.484;4.658;2023-02-20T00:27:06;19.13;;;7.03;;
61638;SDS011;47544;52.484;4.658;2023-02-20T00:27:17;20.10;;;7.00;;
61638;SDS011;47544;52.484;4.658;2023-02-20T00:27:29;17.85;;;6.38;;
61638;SDS011;47544;52.484;4.658;2023-02-20T00:27:40;18.00;;;6.75;;
61638;SDS011;47544;52.484;4.658;2023-02-20T00:27:51;19.08;;;7.07;;
61638;SDS011;47544;52.484;4.658;2023-02-20T00:28:03;20.83;;;7.93;;
61638;SDS011;47544;52.484;4.658;2023-02-20T00:28:14;18.23;;;6.95;;
61638;SDS011;47544;52.484;4.658;2023-02-20T00:28:25;12.35;;;5.22;;
61638;SDS011;47544;52.484;4.658;2023-02-20T00:28:36;10.80;;;4.40;;
61638;SDS011;47544;52.484;4.658;2023-02-20T00:28:49;11.13;;;5.03;;
61638;SDS011;47544;52.484;4.658;2023-02-20T00:29:00;15.05;;;6.30;;
61638;SDS011;47544;52.484;4.658;2023-02-20T00:29:13;16.25;;;6.50;;
61638;SDS011;47544;52.484;4.658;2023-02-20T00:29:24;17.13;;;6.70;;
61638;SDS011;47544;52.484;4.658;2023-02-20T00:29:35;13.13;;;5.70;;
61638;SDS011;47544;52.484;4.658;2023-02-20T00:29:46;10.35;;;4.88;;
61638;SDS011;47544;52.484;4.658;2023-02-20T00:29:57;8.88;;;4.30;;
61638;SDS011;47544;52.484;4.658;2023-02-20T00:30:09;9.75;;;4.35;;
61638;SDS011;47544;52.484;4.658;2023-02-20T00:30:22;10.63;;;4.53;;
61638;SDS011;47544;52.484;4.658;2023-02-20T00:30:33;10.38;;;4.55;;
61638;SDS011;47544;52.484;4.658;2023-02-20T00:30:45;16.73;;;5.57;;
61638;SDS011;47544;52.484;4.658;2023-02-20T00:30:56;18.20;;;6.40;;
61638;SDS011;47544;52.484;4.658;2023-02-20T00:31:10;21.70;;;7.78;;
61638;SDS011;47544;52.484;4.658;2023-02-20T00:31:21;16.70;;;7.07;;
61638;SDS011;47544;52.484;4.658;2023-02-20T00:31:32;16.15;;;6.50;;
61638;SDS011;47544;52.484;4.658;2023-02-20T00:31:50;15.80;;;7.05;;
61638;SDS011;47544;52.484;4.658;2023-02-20T00:32:02;14.75;;;6.80;;
61638;SDS011;47544;52.484;4.658;2023-02-20T00:32:14;14.60;;;6.18;;
61638;SDS011;47544;52.484;4.658;2023-02-20T00:32:25;16.38;;;6.50;;
61638;SDS011;47544;52.484;4.658;2023-02-20T00:32:36;17.60;;;7.10;;
61638;SDS011;47544;52.484;4.658;2023-02-20T00:32:47;17.42;;;7.13;;
61638;SDS011;47544;52.484;4.658;2023-02-20T00:32:59;15.32;;;6.35;;
61638;SDS011;47544;52.484;4.658;2023-02-20T00:33:10;13.73;;;5.03;;
61638;SDS011;47544;52.484;4.658;2023-02-20T00:33:21;16.42;;;5.53;;
61638;SDS011;47544;52.484;4.658;2023-02-20T00:33:32;18.95;;;5.95;;
61638;SDS011;47544;52.484;4.658;2023-02-20T00:33:46;16.30;;;5.75;;
61638;SDS011;47544;52.484;4.658;2023-02-20T00:33:57;13.80;;;4.75;;
61638;SDS011;47544;52.484;4.658;2023-02-20T00:34:08;14.65;;;5.13;;
61638;SDS011;47544;52.484;4.658;2023-02-20T00:34:19;15.63;;;5.70;;
61638;SDS011;47544;52.484;4.658;2023-02-20T00:34:30;16.35;;;6.53;;
61638;SDS011;47544;52.484;4.658;2023-02-20T00:34:41;18.10;;;7.20;;
61638;SDS011;47544;52.484;4.658;2023-02-20T00:34:52;18.98;;;7.32;;
61638;SDS011;47544;52.484;4.658;2023-02-20T00:35:03;18.45;;;7.10;;
61638;SDS011;47544;52.484;4.658;2023-02-20T00:35:15;16.38;;;5.88;;
61638;SDS011;47544;52.484;4.658;2023-02-20T00:35:27;14.73;;;5.43;;
61638;SDS011;47544;52.484;4.658;2023-02-20T00:35:38;13.70;;;5.03;;
61638;SDS011;47544;52.484;4.658;2023-02-20T00:35:49;15.32;;;5.45;;
61638;SDS011;47544;52.484;4.658;2023-02-20T00:36:00;14.20;;;5.00;;
61638;SDS011;47544;52.484;4.658;2023-02-20T00:36:13;13.02;;;4.85;;
61638;SDS011;47544;52.484;4.658;2023-02-20T00:36:24;11.43;;;4.60;;
61638;SDS011;47544;52.484;4.658;2023-02-20T00:36:36;12.57;;;5.03;;
61638;SDS011;47544;52.484;4.658;2023-02-20T00:36:47;13.63;;;5.45;;
61638;SDS011;47544;52.484;4.658;2023-02-20T00:36:59;13.70;;;5.50;;
61638;SDS011;47544;52.484;4.658;2023-02-20T00:37:10;13.10;;;5.32;;
61638;SDS011;47544;52.484;4.658;2023-02-20T00:37:21;12.60;;;5.15;;
61638;SDS011;47544;52.484;4.658;2023-02-20T00:37:32;13.43;;;6.03;;
61638;SDS011;47544;52.484;4.658;2023-02-20T00:37:44;14.25;;;6.43;;
61638;SDS011;47544;52.484;4.658;2023-02-20T00:37:55;15.98;;;6.88;;
61638;SDS011;47544;52.484;4.658;2023-02-20T00:38:10;13.98;;;6.00;;
61638;SDS011;47544;52.484;4.658;2023-02-20T00:38:21;14.68;;;6.10;;
61638;SDS011;47544;52.484;4.658;2023-02-20T00:38:32;16.67;;;6.78;;
61638;SDS011;47544;52.484;4.658;2023-02-20T00:38:43;20.98;;;7.90;;
61638;SDS011;47544;52.484;4.658;2023-02-20T00:38:54;18.98;;;7.53;;
61638;SDS011;47544;52.484;4.658;2023-02-20T00:39:05;16.02;;;6.55;;
61638;SDS011;47544;52.484;4.658;2023-02-20T00:39:16;14.65;;;5.93;;
61638;SDS011;47544;52.484;4.658;2023-02-20T00:39:28;16.70;;;6.28;;
61638;SDS011;47544;52.484;4.658;2023-02-20T00:39:39;16.25;;;6.10;;
61638;SDS011;47544;52.484;4.658;2023-02-20T00:39:50;14.27;;;5.90;;
61638;SDS011;47544;52.484;4.658;2023-02-20T00:40:01;13.35;;;5.45;;
61638;SDS011;47544;52.484;4.658;2023-02-20T00:40:12;12.52;;;4.88;;
61638;SDS011;47544;52.484;4.658;2023-02-20T00:40:24;11.88;;;4.72;;
61638;SDS011;47544;52.484;4.658;2023-02-20T00:40:35;12.35;;;4.85;;
61638;SDS011;47544;52.484;4.658;2023-02-20T00:40:46;15.00;;;5.97;;
61638;SDS011;47544;52.484;4.658;2023-02-20T00:40:58;16.70;;;6.05;;
61638;SDS011;47544;52.484;4.658;2023-02-20T00:41:09;18.23;;;6.17;;
61638;SDS011;47544;52.484;4.658;2023-02-20T00:41:21;18.60;;;5.97;;
61638;SDS011;47544;52.484;4.658;2023-02-20T00:41:32;15.60;;;5.13;;
61638;SDS011;47544;52.484;4.658;2023-02-20T00:41:44;15.25;;;5.22;;
61638;SDS011;47544;52.484;4.658;2023-02-20T00:41:55;15.07;;;5.10;;
61638;SDS011;47544;52.484;4.658;2023-02-20T00:42:06;15.25;;;5.53;;
61638;SDS011;47544;52.484;4.658;2023-02-20T00:42:18;12.63;;;4.80;;
61638;SDS011;47544;52.484;4.658;2023-02-20T00:42:29;13.23;;;5.18;;
61638;SDS011;47544;52.484;4.658;2023-02-20T00:42:40;11.43;;;4.72;;
61638;SDS011;47544;52.484;4.658;2023-02-20T00:42:51;12.70;;;4.38;;
61638;SDS011;47544;52.484;4.658;2023-02-20T00:43:03;13.57;;;4.20;;
61638;SDS011;47544;52.484;4.658;2023-02-20T00:43:14;21.67;;;5.90;;
61638;SDS011;47544;52.484;4.658;2023-02-20T00:43:25;22.85;;;7.28;;
61638;SDS011;47544;52.484;4.658;2023-02-20T00:43:36;24.15;;;7.50;;
61638;SDS011;47544;52.484;4.658;2023-02-20T00:43:50;19.02;;;6.38;;
61638;SDS011;47544;52.484;4.658;2023-02-20T00:44:01;18.50;;;6.22;;
61638;SDS011;47544;52.484;4.658;2023-02-20T00:44:12;18.48;;;6.75;;
61638;SDS011;47544;52.484;4.658;2023-02-20T00:44:23;17.80;;;6.82;;
61638;SDS011;47544;52.484;4.658;2023-02-20T00:44:35;16.25;;;6.43;;
61638;SDS011;47544;52.484;4.658;2023-02-20T00:44:46;17.83;;;6.60;;
61638;SDS011;47544;52.484;4.658;2023-02-20T00:44:58;20.83;;;7.60;;
61638;SDS011;47544;52.484;4.658;2023-02-20T00:45:10;19.17;;;6.82;;
61638;SDS011;47544;52.484;4.658;2023-02-20T00:45:21;16.08;;;5.95;;
61638;SDS011;47544;52.484;4.658;2023-02-20T00:45:32;15.07;;;4.90;;
61638;SDS011;47544;52.484;4.658;2023-02-20T00:45:43;16.10;;;5.13;;
61638;SDS011;47544;52.484;4.658;2023-02-20T00:45:54;16.83;;;5.30;;
61638;SDS011;47544;52.484;4.658;2023-02-20T00:46:05;16.98;;;5.55;;
61638;SDS011;47544;52.484;4.658;2023-02-20T00:46:16;16.33;;;5.68;;
61638;SDS011;47544;52.484;4.658;2023-02-20T00:46:27;19.20;;;6.03;;
61638;SDS011;47544;52.484;4.658;2023-02-20T00:46:39;19.48;;;5.78;;
61638;SDS011;47544;52.484;4.658;2023-02-20T00:46:51;15.60;;;4.72;;
61638;SDS011;47544;52.484;4.658;2023-02-20T00:47:03;14.32;;;4.55;;
61638;SDS011;47544;52.484;4.658;2023-02-20T00:47:14;16.02;;;4.88;;
61638;SDS011;47544;52.484;4.658;2023-02-20T00:47:25;15.63;;;4.47;;
61638;SDS011;47544;52.484;4.658;2023-02-20T00:47:36;16.42;;;4.53;;
61638;SDS011;47544;52.484;4.658;2023-02-20T00:47:47;12.50;;;4.40;;
61638;SDS011;47544;52.484;4.658;2023-02-20T00:47:58;12.90;;;4.78;;
61638;SDS011;47544;52.484;4.658;2023-02-20T00:48:10;14.00;;;5.28;;
61638;SDS011;47544;52.484;4.658;2023-02-20T00:48:21;16.38;;;5.55;;
61638;SDS011;47544;52.484;4.658;2023-02-20T00:48:32;16.77;;;5.35;;
61638;SDS011;47544;52.484;4.658;2023-02-20T00:48:43;15.35;;;4.88;;
61638;SDS011;47544;52.484;4.658;2023-02-20T00:48:54;13.55;;;4.35;;
61638;SDS011;47544;52.484;4.658;2023-02-20T00:49:05;13.32;;;4.32;;
61638;SDS011;47544;52.484;4.658;2023-02-20T00:49:17;13.98;;;4.72;;
61638;SDS011;47544;52.484;4.658;2023-02-20T00:49:28;13.70;;;4.68;;
61638;SDS011;47544;52.484;4.658;2023-02-20T00:49:39;13.20;;;4.50;;
61638;SDS011;47544;52.484;4.658;2023-02-20T00:49:50;13.80;;;4.25;;
61638;SDS011;47544;52.484;4.658;2023-02-20T00:50:01;15.95;;;4.57;;
61638;SDS011;47544;52.484;4.658;2023-02-20T00:50:12;15.95;;;4.30;;
61638;SDS011;47544;52.484;4.658;2023-02-20T00:50:24;17.27;;;5.00;;
61638;SDS011;47544;52.484;4.658;2023-02-20T00:50:35;15.63;;;5.20;;
61638;SDS011;47544;52.484;4.658;2023-02-20T00:50:47;18.50;;;5.90;;
61638;SDS011;47544;52.484;4.658;2023-02-20T00:50:58;15.85;;;5.47;;
61638;SDS011;47544;52.484;4.658;2023-02-20T00:51:09;13.07;;;4.47;;
61638;SDS011;47544;52.484;4.658;2023-02-20T00:51:20;9.93;;;3.80;;
61638;SDS011;47544;52.484;4.658;2023-02-20T00:51:31;10.73;;;3.65;;
61638;SDS011;47544;52.484;4.658;2023-02-20T00:51:43;10.75;;;3.53;;
61638;SDS011;47544;52.484;4.658;2023-02-20T00:51:54;14.45;;;4.32;;
61638;SDS011;47544;52.484;4.658;2023-02-20T00:52:06;19.08;;;5.78;;
61638;SDS011;47544;52.484;4.658;2023-02-20T00:52:17;17.45;;;5.78;;
61638;SDS011;47544;52.484;4.658;2023-02-20T00:52:28;16.60;;;5.15;;
61638;SDS011;47544;52.484;4.658;2023-02-20T00:52:39;14.43;;;4.38;;
61638;SDS011;47544;52.484;4.658;2023-02-20T00:52:50;15.75;;;4.68;;
61638;SDS011;47544;52.484;4.658;2023-02-20T00:53:01;16.67;;;4.65;;
61638;SDS011;47544;52.484;4.658;2023-02-20T00:53:13;17.73;;;5.00;;
61638;SDS011;47544;52.484;4.658;2023-02-20T00:53:24;18.80;;;5.00;;
61638;SDS011;47544;52.484;4.658;2023-02-20T00:53:35;18.60;;;4.95;;
61638;SDS011;47544;52.484;4.658;2023-02-20T00:53:47;15.35;;;4.10;;
61638;SDS011;47544;52.484;4.658;2023-02-20T00:53:58;12.23;;;3.97;;
61638;SDS011;47544;52.484;4.658;2023-02-20T00:54:09;10.55;;;3.83;;
61638;SDS011;47544;52.484;4.658;2023-02-20T00:54:20;9.07;;;3.70;;
61638;SDS011;47544;52.484;4.658;2023-02-20T00:54:31;9.77;;;3.55;;
61638;SDS011;47544;52.484;4.658;2023-02-20T00:54:42;12.45;;;3.70;;
61638;SDS011;47544;52.484;4.658;2023-02-20T00:54:53;11.98;;;3.55;;
61638;SDS011;47544;52.484;4.658;2023-02-20T00:55:05;14.05;;;3.70;;
61638;SDS011;47544;52.484;4.658;2023-02-20T00:55:16;14.13;;;3.75;;
61638;SDS011;47544;52.484;4.658;2023-02-20T00:55:27;15.35;;;4.35;;
61638;SDS011;47544;52.484;4.658;2023-02-20T00:55:38;13.38;;;4.28;;
61638;SDS011;47544;52.484;4.658;2023-02-20T00:55:49;14.52;;;3.72;;
61638;SDS011;47544;52.484;4.658;2023-02-20T00:56:00;14.90;;;3.47;;
61638;SDS011;47544;52.484;4.658;2023-02-20T00:56:11;14.77;;;3.20;;
61638;SDS011;47544;52.484;4.658;2023-02-20T00:56:23;11.93;;;3.25;;
61638;SDS011;47544;52.484;4.658;2023-02-20T00:56:34;12.38;;;3.25;;
61638;SDS011;47544;52.484;4.658;2023-02-20T00:56:45;12.48;;;3.45;;
61638;SDS011;47544;52.484;4.658;2023-02-20T00:56:57;12.90;;;3.55;;
61638;SDS011;47544;52.484;4.658;2023-02-20T00:57:08;12.05;;;3.55;;
61638;SDS011;47544;52.484;4.658;2023-02-20T00:57:19;10.10;;;3.13;;
61638;SDS011;47544;52.484;4.658;2023-02-20T00:57:30;10.18;;;3.20;;
61638;SDS011;47544;52.484;4.658;2023-02-20T00:57:41;12.38;;;3.47;;
61638;SDS011;47544;52.484;4.658;2023-02-20T00:57:52;14.15;;;3.63;;
61638;SDS011;47544;52.484;4.658;2023-02-20T00:58:05;14.57;;;3.65;;
61638;SDS011;47544;52.484;4.658;2023-02-20T00:58:15;14.23;;;3.70;;
61638;SDS011;47544;52.484;4.658;2023-02-20T00:58:26;14.18;;;3.75;;
61638;SDS011;47544;52.484;4.658;2023-02-20T00:58:37;13.13;;;3.63;;
61638;SDS011;47544;52.484;4.658;2023-02-20T00:58:50;11.43;;;3.33;;
61638;SDS011;47544;52.484;4.658;2023-02-20T00:59:02;10.95;;;3.17;;
61638;SDS011;47544;52.484;4.658;2023-02-20T00:59:13;13.13;;;3.22;;
61638;SDS011;47544;52.484;4.658;2023-02-20T00:59:24;14.45;;;3.70;;
61638;SDS011;47544;52.484;4.658;2023-02-20T00:59:36;13.43;;;3.80;;
61638;SDS011;47544;52.484;4.658;2023-02-20T00:59:47;11.27;;;3.35;;
61638;SDS011;47544;52.484;4.658;2023-02-20T00:59:58;11.93;;;3.33;;
61638;SDS011;47544;52.484;4.658;2023-02-20T01:00:11;12.38;;;3.25;;
61638;SDS011;47544;52.484;4.658;2023-02-20T01:00:28;12.43;;;3.45;;
61638;SDS011;47544;52.484;4.658;2023-02-20T01:00:39;12.15;;;3.38;;
61638;SDS011;47544;52.484;4.658;2023-02-20T01:00:50;10.80;;;3.13;;
61638;SDS011;47544;52.484;4.658;2023-02-20T01:01:02;11.70;;;3.15;;
61638;SDS011;47544;52.484;4.658;2023-02-20T01:01:13;13.38;;;3.47;;
61638;SDS011;47544;52.484;4.658;2023-02-20T01:01:26;13.55;;;3.83;;
61638;SDS011;47544;52.484;4.658;2023-02-20T01:01:37;11.50;;;3.75;;
61638;SDS011;47544;52.484;4.658;2023-02-20T01:01:48;10.95;;;3.35;;
61638;SDS011;47544;52.484;4.658;2023-02-20T01:01:59;10.43;;;3.13;;
61638;SDS011;47544;52.484;4.658;2023-02-20T01:02:10;11.60;;;3.17;;
61638;SDS011;47544;52.484;4.658;2023-02-20T01:02:21;12.07;;;3.10;;
61638;SDS011;47544;52.484;4.658;2023-02-20T01:02:33;12.77;;;3.28;;
61638;SDS011;47544;52.484;4.658;2023-02-20T01:02:44;12.88;;;3.55;;
61638;SDS011;47544;52.484;4.658;2023-02-20T01:02:55;15.68;;;4.22;;
61638;SDS011;47544;52.484;4.658;2023-02-20T01:03:06;17.17;;;4.50;;
61638;SDS011;47544;52.484;4.658;2023-02-20T01:03:17;16.25;;;4.22;;
61638;SDS011;47544;52.484;4.658;2023-02-20T01:03:28;12.93;;;3.55;;
61638;SDS011;47544;52.484;4.658;2023-02-20T01:03:39;13.48;;;3.35;;
61638;SDS011;47544;52.484;4.658;2023-02-20T01:03:50;12.50;;;3.20;;
61638;SDS011;47544;52.484;4.658;2023-02-20T01:04:02;13.93;;;2.97;;
61638;SDS011;47544;52.484;4.658;2023-02-20T01:04:13;12.48;;;2.90;;
61638;SDS011;47544;52.484;4.658;2023-02-20T01:04:24;14.48;;;3.20;;
61638;SDS011;47544;52.484;4.658;2023-02-20T01:04:35;14.32;;;3.33;;
61638;SDS011;47544;52.484;4.658;2023-02-20T01:04:46;12.38;;;3.20;;
61638;SDS011;47544;52.484;4.658;2023-02-20T01:04:57;10.93;;;3.28;;
61638;SDS011;47544;52.484;4.658;2023-02-20T01:05:09;11.88;;;3.42;;
61638;SDS011;47544;52.484;4.658;2023-02-20T01:05:20;15.25;;;3.53;;
61638;SDS011;47544;52.484;4.658;2023-02-20T01:05:31;15.48;;;3.03;;
61638;SDS011;47544;52.484;4.658;2023-02-20T01:05:43;15.18;;;3.00;;
61638;SDS011;47544;52.484;4.658;2023-02-20T01:05:54;13.73;;;3.17;;
61638;SDS011;47544;52.484;4.658;2023-02-20T01:06:05;15.50;;;3.45;;
61638;SDS011;47544;52.484;4.658;2023-02-20T01:06:16;12.75;;;3.33;;
61638;SDS011;47544;52.484;4.658;2023-02-20T01:06:27;14.68;;;3.53;;
61638;SDS011;47544;52.484;4.658;2023-02-20T01:06:39;14.63;;;3.70;;
61638;SDS011;47544;52.484;4.658;2023-02-20T01:06:50;14.60;;;3.65;;
61638;SDS011;47544;52.484;4.658;2023-02-20T01:07:01;12.23;;;2.53;;
61638;SDS011;47544;52.484;4.658;2023-02-20T01:07:12;10.52;;;2.40;;
61638;SDS011;47544;52.484;4.658;2023-02-20T01:07:23;12.15;;;2.88;;
61638;SDS011;47544;52.484;4.658;2023-02-20T01:07:34;12.88;;;3.22;;
61638;SDS011;47544;52.484;4.658;2023-02-20T01:07:45;13.00;;;3.30;;
61638;SDS011;47544;52.484;4.658;2023-02-20T01:07:57;8.93;;;2.80;;